createdAt,value
2022-12-03T00:02:13.958Z,101477.59
2022-12-03T00:05:20.473Z,101480.34
2022-12-03T00:08:26.333Z,101487.77
2022-12-03T00:11:25.560Z,101489.75
2022-12-03T00:14:31.844Z,101495.06
2022-12-03T00:17:38.223Z,101492.42
2022-12-03T00:20:44.752Z,101492.55
2022-12-03T00:23:50.624Z,101494.05
2022-12-03T00:26:55.706Z,101508.25
2022-12-03T00:30:01.524Z,101495.42
2022-12-03T00:33:06.793Z,101493.58
2022-12-03T00:36:12.142Z,101512.16
2022-12-03T00:39:18.012Z,101514.47
2022-12-03T00:42:17.193Z,101525.30
2022-12-03T00:45:23.497Z,101530.23
2022-12-03T00:48:28.354Z,101525.02
2022-12-03T00:51:35.142Z,101526.41
2022-12-03T00:54:40.624Z,101538.13
2022-12-03T00:57:46.322Z,101520.95
2022-12-03T01:00:52.497Z,101533.97
2022-12-03T01:03:57.851Z,101545.48
2022-12-03T01:07:02.394Z,101541.96
2022-12-03T01:10:08.179Z,101544.23
2022-12-03T01:13:14.056Z,101545.55
2022-12-03T01:16:20.609Z,101548.09
2022-12-03T01:19:26.836Z,101536.02
2022-12-03T01:22:32.196Z,101553.33
2022-12-03T01:25:37.625Z,101551.69
2022-12-03T01:28:43.396Z,101547.53
2022-12-03T01:32:07.080Z,101583.13
2022-12-03T01:35:13.029Z,101572.27
2022-12-03T01:38:18.521Z,101565.08
2022-12-03T01:41:25.107Z,101565.70
2022-12-03T01:44:28.393Z,101576.91
2022-12-03T01:47:34.919Z,101572.70
2022-12-03T01:50:47.719Z,101565.52
2022-12-03T01:53:53.951Z,101579.95
2022-12-03T01:56:52.845Z,101577.05
2022-12-03T01:59:54.140Z,101569.02
2022-12-03T02:03:00.806Z,101575.77
2022-12-03T02:06:06.684Z,101573.19
2022-12-03T02:09:07.401Z,101576.75
2022-12-03T02:12:12.448Z,101569.42
2022-12-03T02:15:17.954Z,101578.70
2022-12-03T02:18:24.410Z,101588.56
2022-12-03T02:21:46.829Z,101581.95
2022-12-03T02:25:16.563Z,101596.79
2022-12-03T02:28:23.642Z,101599.76
2022-12-03T02:31:30.109Z,101602.58
2022-12-03T02:34:58.133Z,101618.12
2022-12-03T02:38:07.334Z,101622.04
2022-12-03T02:41:17.136Z,101636.00
2022-12-03T02:44:21.928Z,101632.23
2022-12-03T02:47:26.661Z,101635.17
2022-12-03T02:50:37.159Z,101640.45
2022-12-03T02:53:51.158Z,101651.24
2022-12-03T02:56:56.698Z,101636.73
2022-12-03T03:00:02.387Z,101641.44
2022-12-03T03:03:08.110Z,101645.58
2022-12-03T03:06:13.043Z,101640.30
2022-12-03T03:09:18.200Z,101665.38
2022-12-03T03:12:23.390Z,101652.91
2022-12-03T03:15:28.238Z,101638.08
2022-12-03T03:18:26.256Z,101639.56
2022-12-03T03:21:18.829Z,101659.26
2022-12-03T03:24:24.322Z,101635.27
2022-12-03T03:27:30.039Z,101645.92
2022-12-03T03:30:35.281Z,101645.68
2022-12-03T03:33:41.279Z,101638.87
2022-12-03T03:36:46.396Z,101657.53
2022-12-03T03:39:53.051Z,101663.36
2022-12-03T03:42:59.320Z,101665.95
2022-12-03T03:46:05.274Z,101677.00
2022-12-03T03:49:11.076Z,101662.95
2022-12-03T03:52:18.639Z,101660.17
2022-12-03T03:55:25.418Z,101666.09
2022-12-03T03:58:31.062Z,101665.98
2022-12-03T04:01:37.483Z,101675.16
2022-12-03T04:04:42.654Z,101676.93
2022-12-03T04:07:48.368Z,101685.28
2022-12-03T04:11:12.392Z,101682.91
2022-12-03T04:14:17.477Z,101695.50
2022-12-03T04:17:22.867Z,101689.53
2022-12-03T04:20:28.975Z,101692.14
2022-12-03T04:23:34.023Z,101709.67
2022-12-03T04:26:56.930Z,101690.94
2022-12-03T04:30:02.322Z,101695.47
2022-12-03T04:33:19.192Z,101696.52
2022-12-03T04:36:24.792Z,101700.73
2022-12-03T04:39:32.268Z,101716.25
2022-12-03T04:42:37.597Z,101707.42
2022-12-03T04:45:36.117Z,101722.52
2022-12-03T04:48:40.857Z,101723.45
2022-12-03T04:51:47.179Z,101717.45
2022-12-03T04:54:53.528Z,101750.20
2022-12-03T04:57:59.221Z,101721.56
2022-12-03T05:01:05.035Z,101731.85
2022-12-03T05:04:11.020Z,101737.54
2022-12-03T05:07:15.883Z,101723.56
2022-12-03T05:10:22.121Z,101725.70
2022-12-03T05:13:28.485Z,101745.78
2022-12-03T05:16:34.169Z,101755.10
2022-12-03T05:19:58.474Z,101750.06
2022-12-03T05:23:05.103Z,101755.42
2022-12-03T05:26:10.749Z,101759.66
2022-12-03T05:29:16.370Z,101765.47
2022-12-03T05:32:22.325Z,101762.66
2022-12-03T05:35:28.414Z,101765.04
2022-12-03T05:38:34.670Z,101775.91
2022-12-03T05:41:58.220Z,101780.52
2022-12-03T05:45:03.885Z,101765.34
2022-12-03T05:48:09.870Z,101775.61
2022-12-03T05:51:16.048Z,101781.55
2022-12-03T05:54:21.734Z,101791.91
2022-12-03T05:57:27.461Z,101802.68
2022-12-03T06:00:43.539Z,101792.56
2022-12-03T06:03:49.002Z,101791.42
2022-12-03T06:06:55.293Z,101783.42
2022-12-03T06:10:00.664Z,101806.63
2022-12-03T06:13:01.136Z,101802.76
2022-12-03T06:16:07.136Z,101799.80
2022-12-03T06:19:12.985Z,101798.69
2022-12-03T06:22:18.578Z,101809.45
2022-12-03T06:25:24.407Z,101800.27
2022-12-03T06:28:29.740Z,101813.27
2022-12-03T06:31:35.470Z,101807.98
2022-12-03T06:34:40.605Z,101815.16
2022-12-03T06:37:46.269Z,101807.72
2022-12-03T06:40:52.784Z,101822.66
2022-12-03T06:43:58.438Z,101814.05
2022-12-03T06:47:03.849Z,101828.08
2022-12-03T06:50:08.899Z,101818.32
2022-12-03T06:53:14.605Z,101828.75
2022-12-03T06:56:22.363Z,101816.30
2022-12-03T06:59:26.290Z,101818.38
2022-12-03T07:02:32.279Z,101824.05
2022-12-03T07:05:38.109Z,101820.92
2022-12-03T07:08:44.241Z,101821.77
2022-12-03T07:11:49.396Z,101839.42
2022-12-03T07:14:56.207Z,101830.63
2022-12-03T07:18:02.859Z,101839.98
2022-12-03T07:21:08.267Z,101822.53
2022-12-03T07:24:13.585Z,101839.95
2022-12-03T07:27:13.108Z,101827.50
2022-12-03T07:30:06.210Z,101852.09
2022-12-03T07:33:15.487Z,101849.17
2022-12-03T07:36:25.043Z,101832.75
2022-12-03T07:39:30.297Z,101832.75
2022-12-03T07:42:36.838Z,101837.45
2022-12-03T07:45:42.511Z,101843.78
2022-12-03T07:48:47.495Z,101842.02
2022-12-03T07:51:55.186Z,101842.86
2022-12-03T07:55:01.257Z,101843.56
2022-12-03T07:58:07.015Z,101860.30
2022-12-03T08:01:12.239Z,101841.34
2022-12-03T08:04:19.926Z,101859.28
2022-12-03T08:07:25.776Z,101835.64
2022-12-03T08:10:31.652Z,101844.98
2022-12-03T08:13:37.986Z,101851.92
2022-12-03T08:16:44.811Z,101836.94
2022-12-03T08:19:51.514Z,101844.30
2022-12-03T08:22:59.093Z,101846.02
2022-12-03T08:26:07.401Z,101835.14
2022-12-03T08:29:12.695Z,101827.70
2022-12-03T08:32:20.451Z,101830.55
2022-12-03T08:35:40.420Z,101829.54
2022-12-03T08:38:51.341Z,101829.80
2022-12-03T08:42:16.943Z,101826.97
2022-12-03T08:49:12.520Z,101845.57
2022-12-03T08:52:28.057Z,101859.69
2022-12-03T08:55:49.457Z,101818.52
2022-12-03T08:59:41.431Z,101836.05
2022-12-03T09:02:51.430Z,101824.76
2022-12-03T09:05:56.846Z,101829.81
2022-12-03T09:09:06.707Z,101824.91
2022-12-03T09:12:10.553Z,101833.58
2022-12-03T09:15:15.796Z,101814.61
2022-12-03T09:18:24.824Z,101828.49
2022-12-03T09:21:31.841Z,101802.16
2022-12-03T09:24:38.038Z,101803.92
2022-12-03T09:27:43.540Z,101843.98
2022-12-03T09:30:49.453Z,101812.29
2022-12-03T09:33:55.025Z,101833.67
2022-12-03T09:37:00.855Z,101816.61
2022-12-03T09:40:05.637Z,101835.75
2022-12-03T09:43:11.199Z,101816.05
2022-12-03T09:46:16.838Z,101813.94
2022-12-03T09:49:22.212Z,101817.03
2022-12-03T09:52:33.380Z,101814.28
2022-12-03T09:55:40.970Z,101818.00
2022-12-03T09:58:46.731Z,101808.16
2022-12-03T10:01:52.141Z,101817.55
2022-12-03T10:04:58.992Z,101817.72
2022-12-03T10:08:05.454Z,101807.59
2022-12-03T10:11:11.305Z,101816.35
2022-12-03T10:14:16.124Z,101826.97
2022-12-03T10:17:22.225Z,101810.25
2022-12-03T10:20:31.031Z,101811.33
2022-12-03T10:23:40.606Z,101813.45
2022-12-03T10:30:34.029Z,101809.10
2022-12-03T10:33:43.902Z,101806.62
2022-12-03T10:36:48.641Z,101808.45
2022-12-03T10:40:16.123Z,101821.20
2022-12-03T10:43:40.415Z,101811.92
2022-12-03T10:46:46.517Z,101799.17
2022-12-03T10:49:52.637Z,101802.41
2022-12-03T10:52:57.646Z,101799.80
2022-12-03T10:56:06.620Z,101792.08
2022-12-03T10:59:12.734Z,101790.21
2022-12-03T11:02:19.703Z,101795.56
2022-12-03T11:05:33.090Z,101806.64
2022-12-03T11:08:41.803Z,101789.94
2022-12-03T11:11:53.549Z,101786.77
2022-12-03T11:15:14.890Z,101793.45
2022-12-03T11:18:22.825Z,101832.80
2022-12-03T11:25:45.091Z,101797.64
2022-12-03T11:28:51.840Z,101808.01
2022-12-03T11:32:01.247Z,101795.83
2022-12-03T11:35:07.111Z,101787.86
2022-12-03T11:38:27.829Z,101792.44
2022-12-03T11:41:49.387Z,101794.38
2022-12-03T11:48:30.882Z,101801.31
2022-12-03T11:51:38.009Z,101815.97
2022-12-03T11:55:07.321Z,101788.39
2022-12-03T11:58:41.260Z,101814.03
2022-12-03T12:01:52.093Z,101802.55
2022-12-03T12:04:57.882Z,101804.87
2022-12-03T12:08:03.302Z,101805.83
2022-12-03T12:11:09.378Z,101806.60
2022-12-03T12:14:20.964Z,101825.12
2022-12-03T12:17:45.092Z,101822.27
2022-12-03T12:20:52.199Z,101830.42
2022-12-03T12:23:57.642Z,101818.78
2022-12-03T12:31:28.267Z,101828.42
2022-12-03T12:34:35.924Z,101830.08
2022-12-03T12:38:00.222Z,101836.56
2022-12-03T12:41:11.777Z,101849.30
2022-12-03T12:44:17.230Z,101845.88
2022-12-03T12:47:24.954Z,101836.78
2022-12-03T12:50:32.930Z,101860.84
2022-12-03T12:53:50.937Z,101855.80
2022-12-03T12:57:02.096Z,101851.48
2022-12-03T13:00:07.783Z,101862.06
2022-12-03T13:03:17.704Z,101863.91
2022-12-03T13:06:28.465Z,101856.05
2022-12-03T13:09:40.354Z,101875.20
2022-12-03T13:12:45.793Z,101851.69
2022-12-03T13:16:11.493Z,101863.80
2022-12-03T13:19:27.885Z,101864.98
2022-12-03T13:22:48.731Z,101858.97
2022-12-03T13:26:12.954Z,101873.75
2022-12-03T13:29:21.691Z,101876.02
2022-12-03T13:32:34.289Z,101853.77
2022-12-03T13:36:05.465Z,101856.74
2022-12-03T13:39:11.769Z,101867.98
2022-12-03T13:42:52.830Z,101865.59
2022-12-03T13:46:03.058Z,101876.38
2022-12-03T13:49:08.487Z,101884.28
2022-12-03T13:52:14.746Z,101887.69
2022-12-03T13:55:21.356Z,101907.61
2022-12-03T13:58:26.335Z,101894.28
2022-12-03T14:01:32.521Z,101885.30
2022-12-03T14:05:00.725Z,101902.20
2022-12-03T14:08:08.128Z,101921.46
2022-12-03T14:11:13.798Z,101913.91
2022-12-03T14:14:19.155Z,101929.86
2022-12-03T14:17:37.878Z,101920.37
2022-12-03T14:21:05.163Z,101905.69
2022-12-03T14:24:10.331Z,101909.41
2022-12-03T14:27:18.166Z,101923.00
2022-12-03T14:30:24.390Z,101935.56
2022-12-03T14:33:35.061Z,101929.60
2022-12-03T14:36:41.257Z,101930.09
2022-12-03T14:39:56.729Z,101951.45
2022-12-03T14:43:08.009Z,101945.48
2022-12-03T14:46:31.912Z,101941.98
2022-12-03T14:49:36.636Z,101941.39
2022-12-03T14:52:51.421Z,101933.41
2022-12-03T14:56:06.899Z,101945.08
2022-12-03T14:59:13.970Z,101954.77
2022-12-03T15:02:39.631Z,101964.92
2022-12-03T15:06:01.475Z,101973.31
2022-12-03T15:09:07.359Z,101959.84
2022-12-03T15:12:19.040Z,101955.77
2022-12-03T15:15:26.907Z,101983.71
2022-12-03T15:18:37.978Z,101970.38
2022-12-03T15:22:01.110Z,101988.38
2022-12-03T15:25:08.989Z,101984.65
2022-12-03T15:28:15.892Z,101990.84
2022-12-03T15:31:21.862Z,101991.97
2022-12-03T15:34:51.956Z,102001.88
2022-12-03T15:41:31.193Z,102007.09
2022-12-03T15:44:38.063Z,102003.26
2022-12-03T15:47:43.123Z,102016.52
2022-12-03T15:50:48.473Z,102008.73
2022-12-03T15:53:55.704Z,102013.27
2022-12-03T16:00:31.898Z,102014.09
2022-12-03T16:04:05.294Z,102033.80
2022-12-03T16:07:12.186Z,102029.86
2022-12-03T16:10:18.989Z,102039.21
2022-12-03T16:13:46.971Z,102035.62
2022-12-03T16:20:47.775Z,102034.97
2022-12-03T16:24:04.545Z,102036.35
2022-12-03T16:27:19.563Z,102045.36
2022-12-03T16:33:59.508Z,102062.48
2022-12-03T16:37:11.436Z,102076.44
2022-12-03T16:40:33.619Z,102063.53
2022-12-03T16:43:48.399Z,102069.94
2022-12-03T16:51:07.439Z,102085.03
2022-12-03T16:54:13.626Z,102071.84
2022-12-03T16:57:20.724Z,102077.91
2022-12-03T17:00:28.156Z,102096.73
2022-12-03T17:03:34.243Z,102082.73
2022-12-03T17:06:40.142Z,102076.19
2022-12-03T17:09:47.834Z,102084.89
2022-12-03T17:13:09.257Z,102116.52
2022-12-03T17:16:01.984Z,102101.32
2022-12-03T17:19:08.135Z,102091.88
2022-12-03T17:22:14.299Z,102092.72
2022-12-03T17:25:20.263Z,102108.86
2022-12-03T17:28:24.786Z,102090.94
2022-12-03T17:31:24.346Z,102109.14
2022-12-03T17:34:29.706Z,102107.42
2022-12-03T17:37:35.486Z,102110.83
2022-12-03T17:40:41.657Z,102117.20
2022-12-03T17:43:47.648Z,102113.25
2022-12-03T17:46:53.128Z,102133.86
2022-12-03T17:49:52.892Z,102119.62
2022-12-03T17:52:45.462Z,102116.59
2022-12-03T17:55:53.652Z,102139.66
2022-12-03T17:58:52.331Z,102150.55
2022-12-03T18:01:59.928Z,102152.22
2022-12-03T18:05:05.752Z,102150.30
2022-12-03T18:08:12.175Z,102154.02
2022-12-03T18:11:16.919Z,102150.16
2022-12-03T18:14:22.954Z,102158.48
2022-12-03T18:17:28.056Z,102157.31
2022-12-03T18:20:33.114Z,102149.88
2022-12-03T18:23:38.224Z,102155.78
2022-12-03T18:26:44.120Z,102150.27
2022-12-03T18:29:49.812Z,102152.38
2022-12-03T18:32:56.122Z,102153.95
2022-12-03T18:36:01.078Z,102151.80
2022-12-03T18:39:08.178Z,102158.98
2022-12-03T18:42:13.595Z,102171.83
2022-12-03T18:45:21.631Z,102189.25
2022-12-03T18:48:30.099Z,102175.02
2022-12-03T18:51:37.566Z,102168.85
2022-12-03T18:54:43.357Z,102163.94
2022-12-03T18:57:48.304Z,102174.94
2022-12-03T19:00:53.311Z,102178.36
2022-12-03T19:03:58.583Z,102175.79
2022-12-03T19:07:04.316Z,102176.34
2022-12-03T19:10:09.950Z,102192.98
2022-12-03T19:13:16.677Z,102191.05
2022-12-03T19:16:24.359Z,102182.91
2022-12-03T19:19:32.930Z,102186.20
2022-12-03T19:22:38.211Z,102181.94
2022-12-03T19:25:43.904Z,102190.45
2022-12-03T19:28:50.507Z,102198.58
2022-12-03T19:31:56.826Z,102184.68
2022-12-03T19:35:03.715Z,102204.00
2022-12-03T19:38:10.104Z,102188.81
2022-12-03T19:41:21.142Z,102192.95
2022-12-03T19:44:28.934Z,102194.58
2022-12-03T19:47:33.709Z,102197.78
2022-12-03T19:50:39.304Z,102201.30
2022-12-03T19:53:46.471Z,102201.75
2022-12-03T19:56:53.513Z,102210.66
2022-12-03T19:59:52.888Z,102210.67
2022-12-03T20:02:59.600Z,102216.13
2022-12-03T20:06:05.464Z,102221.13
2022-12-03T20:09:17.687Z,102223.06
2022-12-03T20:12:23.176Z,102209.98
2022-12-03T20:15:28.919Z,102225.03
2022-12-03T20:18:34.558Z,102229.67
2022-12-03T20:21:40.311Z,102226.03
2022-12-03T20:24:45.766Z,102231.01
2022-12-03T20:27:50.869Z,102229.98
2022-12-03T20:30:55.636Z,102235.58
2022-12-03T20:34:04.552Z,102232.51
2022-12-03T20:37:10.124Z,102233.05
2022-12-03T20:40:16.140Z,102235.55
2022-12-03T20:43:22.172Z,102237.75
2022-12-03T20:46:38.214Z,102242.50
2022-12-03T20:49:45.917Z,102240.62
2022-12-03T20:53:16.319Z,102246.13
2022-12-03T20:55:59.023Z,102246.16
2022-12-03T20:59:04.762Z,102243.83
2022-12-03T21:02:11.791Z,102243.93
2022-12-03T21:05:17.031Z,102251.63
2022-12-03T21:08:27.913Z,102255.42
2022-12-03T21:11:28.567Z,102255.88
2022-12-03T21:14:34.480Z,102263.66
2022-12-03T21:17:39.957Z,102247.69
2022-12-03T21:20:45.996Z,102258.92
2022-12-03T21:23:50.848Z,102257.05
2022-12-03T21:26:57.237Z,102254.63
2022-12-03T21:30:02.830Z,102261.88
2022-12-03T21:33:08.559Z,102262.50
2022-12-03T21:36:14.728Z,102256.30
2022-12-03T21:39:20.466Z,102255.08
2022-12-03T21:42:35.918Z,102254.03
2022-12-03T21:45:33.293Z,102273.30
2022-12-03T21:48:39.040Z,102263.28
2022-12-03T21:51:45.449Z,102266.08
2022-12-03T21:54:51.644Z,102254.13
2022-12-03T21:57:56.881Z,102250.73
2022-12-03T22:01:03.320Z,102252.47
2022-12-03T22:04:03.189Z,102245.73
2022-12-03T22:07:09.351Z,102248.58
2022-12-03T22:10:15.623Z,102236.66
2022-12-03T22:13:22.217Z,102269.89
2022-12-03T22:16:32.321Z,102244.92
2022-12-03T22:19:37.500Z,102245.67
2022-12-03T22:22:43.186Z,102252.47
2022-12-03T22:25:48.729Z,102252.66
